Blenheim, Canada
Current Conditions -  °F | °C
As of 3:00 AM on Friday 19 Dec 2014 (Local Time) from CYCK Reporting Station
Overcast Overcast  
Wind Chill: 17°   Ceiling: 2000
Heat Index: 27°   Visibility: 9mi
Dew Point: 25°   Wind: 10mph
Humidity: 93%   Direction: 310°NW
Pressure: 30.19"   Gusts: NA
Location:  42.33°N, 82°W
Report Text: CYCK 190800Z AUTO 31009KT 9SM OVC020 M03/M04 A3019 RMK SLP231
Loading
Personal Weather Stations






























Interactive Weather Map New forecast layout! Learn more

10-Day Weather Forecast

Advertisements
Track Severe Weather on mobile